Time;durP1;ratioP1;P1;durP2;ratioP2;P2;SDS_P1;SDS_P2;PMS_P1;PMS_P2;Temp;Humidity;BMP_temperature;BMP_pressure;BME280_temperature;BME280_humidity;BME280_pressure;Samples;Min_cycle;Max_cycle;Signal;HPM_P1;HPM_P2
2023/05/19 00:00:43;;;;;;;;;;;;;;;15.83;57.38;99421.09;5073365;28;19999;-77
2023/05/19 00:03:09;;;;;;;;;;;;;;;15.83;57.80;99420.28;5072671;28;19913;-77
2023/05/19 00:05:39;;;;;;;;;;;;;;;15.86;57.54;99427.84;5072487;28;19991;-77
2023/05/19 00:08:06;;;;;;;;;;;;;;;15.86;57.78;99418.00;5072888;28;19908;-78
2023/05/19 00:10:31;;;;;;;;;;;;;;;15.86;57.74;99417.19;5072766;28;19916;-77
2023/05/19 00:12:57;;;;;;;;;;;;;;;15.87;57.35;99419.63;5072647;28;19908;-76
2023/05/19 00:15:22;;;;;;;;;;;;;;;15.83;57.79;99413.09;5072482;28;19915;-78
2023/05/19 00:17:48;;;;;;;;;;;;;;;15.81;57.34;99411.69;5072091;28;19999;-77
2023/05/19 00:20:14;;;;;;;;;;;;;;;15.81;57.74;99407.19;5072496;28;20005;-76
2023/05/19 00:22:42;;;;;;;;;;;;;;;15.80;57.39;99415.38;5072415;28;19912;-77
2023/05/19 00:25:08;;;;;;;;;;;;;;;15.79;57.72;99419.91;5072358;28;19916;-77
2023/05/19 00:27:33;;;;;;;;;;;;;;;15.77;57.36;99424.63;5072050;28;20412;-77
2023/05/19 00:29:58;;;;;;;;;;;;;;;15.78;57.82;99409.47;5072488;28;19948;-77
2023/05/19 00:32:24;;;;;;;;;;;;;;;15.79;57.76;99417.22;5072585;28;19912;-76
2023/05/19 00:34:49;;;;;;;;;;;;;;;15.80;57.80;99402.88;5073215;28;19965;-77
2023/05/19 00:37:14;;;;;;;;;;;;;;;15.80;57.80;99412.72;5072306;28;19915;-77
2023/05/19 00:39:40;;;;;;;;;;;;;;;15.77;57.87;99416.63;5072280;28;19966;-77
2023/05/19 00:42:05;;;;;;;;;;;;;;;15.79;57.96;99414.56;5072470;28;19912;-77
2023/05/19 00:44:30;;;;;;;;;;;;;;;15.80;58.22;99420.72;5072178;28;19915;-76
2023/05/19 00:46:56;;;;;;;;;;;;;;;15.80;58.06;99407.41;5072367;28;19909;-77
2023/05/19 00:49:21;;;;;;;;;;;;;;;15.78;58.17;99412.94;5071945;28;19908;-77
2023/05/19 00:51:47;;;;;;;;;;;;;;;15.74;57.60;99418.91;5072189;28;20304;-76
2023/05/19 00:54:12;;;;;;;;;;;;;;;15.69;58.07;99411.56;5071999;28;20004;-77
2023/05/19 00:56:38;;;;;;;;;;;;;;;15.70;58.15;99405.22;5072131;28;19997;-76
2023/05/19 00:59:03;;;;;;;;;;;;;;;15.74;58.12;99401.09;5072122;28;19908;-78
2023/05/19 01:01:31;;;;;;;;;;;;;;;15.72;58.42;99408.47;5071831;28;20309;-78
2023/05/19 01:03:57;;;;;;;;;;;;;;;15.69;58.30;99408.91;5071727;28;19966;-77
2023/05/19 01:06:24;;;;;;;;;;;;;;;15.69;58.27;99395.59;5072090;28;19908;-77
2023/05/19 01:08:50;;;;;;;;;;;;;;;15.62;58.28;99396.66;5072060;28;19908;-76
2023/05/19 01:11:15;;;;;;;;;;;;;;;15.63;58.62;99399.09;5072138;28;19908;-77
2023/05/19 01:13:42;;;;;;;;;;;;;;;15.69;58.42;99402.75;5071683;28;19914;-77
2023/05/19 01:16:21;;;;;;;;;;;;;;;15.53;58.41;99401.34;5071793;28;19908;-77
2023/05/19 01:19:00;;;;;;;;;;;;;;;15.56;58.72;99411.56;5072212;28;19983;-78
2023/05/19 01:21:35;;;;;;;;;;;;;;;15.56;58.61;99406.25;5071815;28;19916;-78
2023/05/19 01:24:07;;;;;;;;;;;;;;;15.54;58.93;99411.78;5071976;28;19908;-77
2023/05/19 01:26:48;;;;;;;;;;;;;;;15.54;58.92;99410.97;5071466;28;20434;-77
2023/05/19 01:29:26;;;;;;;;;;;;;;;15.52;58.54;99405.06;5071324;28;20416;-78
2023/05/19 01:31:54;;;;;;;;;;;;;;;15.52;58.64;99408.53;5075926;28;20309;-76
2023/05/19 01:34:19;;;;;;;;;;;;;;;15.54;58.95;99403.00;5075824;28;19992;-77
2023/05/19 01:36:47;;;;;;;;;;;;;;;15.53;58.63;99393.38;5076023;28;20381;-77
2023/05/19 01:39:13;;;;;;;;;;;;;;;15.51;58.91;99396.25;5075954;28;19909;-78
2023/05/19 01:41:40;;;;;;;;;;;;;;;15.46;59.07;99393.41;5075527;28;19913;-77
2023/05/19 01:44:06;;;;;;;;;;;;;;;15.51;59.02;99398.09;5075926;28;19908;-76
2023/05/19 01:46:31;;;;;;;;;;;;;;;15.49;59.07;99394.84;5075830;28;19904;-77
2023/05/19 01:48:57;;;;;;;;;;;;;;;15.45;59.31;99398.94;5075135;28;19909;-77
2023/05/19 01:51:22;;;;;;;;;;;;;;;15.41;59.24;99392.41;5075160;28;19909;-78
2023/05/19 01:53:47;;;;;;;;;;;;;;;15.43;58.99;99387.72;5075073;28;20020;-77
2023/05/19 01:56:18;;;;;;;;;;;;;;;15.45;59.21;99390.97;5075237;28;20301;-78
2023/05/19 01:58:44;;;;;;;;;;;;;;;15.44;59.15;99387.50;5075263;28;20099;-78
2023/05/19 02:01:13;;;;;;;;;;;;;;;15.48;58.91;99393.19;5073701;28;19915;-77
2023/05/19 02:03:41;;;;;;;;;;;;;;;15.52;58.96;99395.22;5074956;28;19915;-77
2023/05/19 02:06:15;;;;;;;;;;;;;;;15.53;58.91;99399.50;5075101;28;20316;-78
2023/05/19 02:08:55;;;;;;;;;;;;;;;15.47;58.66;99391.56;5074958;28;19915;-78
2023/05/19 02:11:20;;;;;;;;;;;;;;;15.43;59.01;99390.38;5075239;28;19912;-78
2023/05/19 02:13:48;;;;;;;;;;;;;;;15.43;59.05;99393.84;5074886;28;20294;-78
2023/05/19 02:16:14;;;;;;;;;;;;;;;15.40;58.86;99402.25;5075211;28;20337;-77
2023/05/19 02:18:44;;;;;;;;;;;;;;;15.38;59.25;99401.66;5074904;28;19950;-77
2023/05/19 02:21:12;;;;;;;;;;;;;;;15.36;58.91;99400.22;5074645;28;19916;-78
2023/05/19 02:23:37;;;;;;;;;;;;;;;15.36;59.29;99393.06;5074735;28;19908;-77
2023/05/19 02:26:02;;;;;;;;;;;;;;;15.38;59.35;99414.13;5074925;28;19915;-77
2023/05/19 02:28:28;;;;;;;;;;;;;;;15.36;59.43;99401.03;5074481;28;19916;-78
2023/05/19 02:30:53;;;;;;;;;;;;;;;15.31;59.26;99386.75;5074750;28;19908;-77
2023/05/19 02:33:18;;;;;;;;;;;;;;;15.34;59.30;99396.97;5074855;28;19987;-78
2023/05/19 02:35:44;;;;;;;;;;;;;;;15.32;59.39;99383.88;5074562;28;20083;-77
2023/05/19 02:38:09;;;;;;;;;;;;;;;15.37;58.97;99396.53;5075094;28;20380;-78
2023/05/19 02:40:34;;;;;;;;;;;;;;;15.37;59.12;99401.84;5074191;28;19908;-77
2023/05/19 02:43:00;;;;;;;;;;;;;;;15.37;59.22;99418.63;5073068;28;20003;-78
2023/05/19 02:45:27;;;;;;;;;;;;;;;15.40;59.35;99422.72;5074627;28;19912;-78
2023/05/19 02:47:52;;;;;;;;;;;;;;;15.44;58.86;99430.06;5074142;28;19908;-77
2023/05/19 02:50:17;;;;;;;;;;;;;;;15.46;59.04;99435.16;5073845;28;19915;-78
2023/05/19 02:52:43;;;;;;;;;;;;;;;15.51;59.23;99443.34;5074074;28;20389;-78
2023/05/19 02:55:08;;;;;;;;;;;;;;;15.47;58.82;99452.75;5074152;28;19909;-77
2023/05/19 02:57:33;;;;;;;;;;;;;;;15.46;58.40;99437.84;5074199;28;20373;-78
2023/05/19 02:59:59;;;;;;;;;;;;;;;15.48;58.57;99443.75;5074210;28;19908;-78
2023/05/19 03:02:24;;;;;;;;;;;;;;;15.46;58.45;99448.47;5074078;28;19916;-78
2023/05/19 03:04:50;;;;;;;;;;;;;;;15.50;58.92;99455.00;5074072;28;19908;-77
2023/05/19 03:07:15;;;;;;;;;;;;;;;15.44;58.78;99437.22;5074011;28;19912;-77
2023/05/19 03:09:41;;;;;;;;;;;;;;;15.48;59.02;99447.22;5074359;28;19965;-77
2023/05/19 03:12:06;;;;;;;;;;;;;;;15.53;58.64;99443.94;5073940;28;19912;-77
2023/05/19 03:14:32;;;;;;;;;;;;;;;15.57;58.92;99447.81;5074260;28;19908;-77
2023/05/19 03:16:58;;;;;;;;;;;;;;;15.56;58.54;99457.63;5073939;28;19951;-77
2023/05/19 03:19:24;;;;;;;;;;;;;;;15.55;58.76;99477.28;5073785;28;19916;-77
2023/05/19 03:21:49;;;;;;;;;;;;;;;15.58;58.56;99466.25;5073524;28;19912;-77
2023/05/19 03:24:15;;;;;;;;;;;;;;;15.57;58.40;99466.44;5073750;28;19908;-77
2023/05/19 03:26:40;;;;;;;;;;;;;;;15.59;58.45;99469.72;5073718;28;19916;-77
2023/05/19 03:29:06;;;;;;;;;;;;;;;15.58;58.13;99471.56;5073231;28;19920;-77
2023/05/19 03:31:32;;;;;;;;;;;;;;;15.60;58.48;99466.03;5073471;28;19916;-77
2023/05/19 03:33:57;;;;;;;;;;;;;;;15.60;58.15;99481.19;5073267;28;19919;-77
2023/05/19 03:36:22;;;;;;;;;;;;;;;15.61;58.50;99478.34;5073078;28;19915;-77
2023/05/19 03:38:48;;;;;;;;;;;;;;;15.60;58.38;99478.53;5073200;28;19916;-78
2023/05/19 03:41:13;;;;;;;;;;;;;;;15.57;58.87;99482.41;5073333;28;20286;-78
2023/05/19 03:43:38;;;;;;;;;;;;;;;15.60;58.75;99483.84;5073240;28;19914;-77
2023/05/19 03:46:04;;;;;;;;;;;;;;;15.54;58.20;99483.63;5071875;28;19915;-78
2023/05/19 03:48:29;;;;;;;;;;;;;;;15.57;58.59;99488.56;5073062;28;19930;-78
2023/05/19 03:50:54;;;;;;;;;;;;;;;15.62;58.87;99495.94;5073175;28;19915;-78
2023/05/19 03:53:19;;;;;;;;;;;;;;;15.62;59.04;99503.94;5072144;28;19908;-78
2023/05/19 03:55:45;;;;;;;;;;;;;;;15.58;58.48;99494.72;5072728;28;20428;-78
2023/05/19 03:58:13;;;;;;;;;;;;;;;15.61;58.48;99493.50;5072954;28;19915;-77
2023/05/19 04:00:38;;;;;;;;;;;;;;;15.63;58.80;99496.78;5072937;28;19912;-77
2023/05/19 04:03:04;;;;;;;;;;;;;;;15.62;58.92;99495.94;5072727;28;19912;-77
2023/05/19 04:05:29;;;;;;;;;;;;;;;15.67;58.71;99501.47;5073385;28;19908;-77
2023/05/19 04:07:54;;;;;;;;;;;;;;;15.71;58.63;99505.31;5072885;28;20403;-77
2023/05/19 04:10:20;;;;;;;;;;;;;;;15.74;58.21;99506.75;5072466;28;19908;-78
2023/05/19 04:12:46;;;;;;;;;;;;;;;15.78;58.26;99519.41;5072857;28;19908;-78
2023/05/19 04:15:11;;;;;;;;;;;;;;;15.84;58.32;99513.25;5073096;28;19962;-78
2023/05/19 04:17:37;;;;;;;;;;;;;;;15.88;58.45;99519.78;5072706;28;19908;-77
2023/05/19 04:20:04;;;;;;;;;;;;;;;15.91;58.27;99517.72;5072899;28;19908;-77
2023/05/19 04:22:29;;;;;;;;;;;;;;;15.91;58.00;99520.38;5072969;28;20007;-77
2023/05/19 04:24:55;;;;;;;;;;;;;;;15.88;58.68;99530.44;5072681;28;19932;-77
2023/05/19 04:27:20;;;;;;;;;;;;;;;15.91;58.14;99525.72;5072006;28;19916;-77
2023/05/19 04:29:47;;;;;;;;;;;;;;;15.91;58.43;99523.84;5072404;28;19908;-77
2023/05/19 04:32:16;;;;;;;;;;;;;;;15.87;57.99;99525.31;5072064;28;19913;-77
2023/05/19 04:34:44;;;;;;;;;;;;;;;15.94;58.10;99534.09;5072463;28;19912;-78
2023/05/19 04:37:10;;;;;;;;;;;;;;;15.89;58.11;99529.41;5072235;28;20353;-78
2023/05/19 04:39:38;;;;;;;;;;;;;;;16.00;58.36;99543.88;5072010;28;19956;-77
2023/05/19 04:42:04;;;;;;;;;;;;;;;16.05;58.36;99540.59;5072110;28;19912;-77
2023/05/19 04:44:30;;;;;;;;;;;;;;;16.09;58.29;99553.25;5072319;28;20312;-78
2023/05/19 04:46:57;;;;;;;;;;;;;;;16.13;58.25;99545.66;5072291;28;19909;-78
2023/05/19 04:49:23;;;;;;;;;;;;;;;16.16;58.40;99545.22;5072247;28;19916;-79
2023/05/19 04:51:49;;;;;;;;;;;;;;;16.16;58.24;99537.25;5072228;28;19912;-77
2023/05/19 04:54:14;;;;;;;;;;;;;;;16.17;58.30;99544.19;5072065;28;20396;-78
2023/05/19 04:56:40;;;;;;;;;;;;;;;16.18;58.30;99548.50;5071579;28;19901;-77
2023/05/19 04:59:06;;;;;;;;;;;;;;;16.19;58.47;99547.47;5072118;28;19915;-78
2023/05/19 05:01:31;;;;;;;;;;;;;;;16.22;58.51;99557.69;5071637;28;19908;-78
2023/05/19 05:03:58;;;;;;;;;;;;;;;16.27;58.60;99554.38;5071907;28;19908;-77
2023/05/19 05:06:23;;;;;;;;;;;;;;;16.32;58.40;99560.69;5071939;28;20050;-77
2023/05/19 05:08:49;;;;;;;;;;;;;;;16.28;58.59;99558.69;5071923;28;19939;-77
2023/05/19 05:11:15;;;;;;;;;;;;;;;16.30;58.75;99572.59;5072048;28;19998;-77
2023/05/19 05:13:40;;;;;;;;;;;;;;;16.33;58.82;99564.19;5071523;28;19918;-77
2023/05/19 05:16:07;;;;;;;;;;;;;;;16.38;58.68;99572.38;5071906;28;19999;-77
2023/05/19 05:18:32;;;;;;;;;;;;;;;16.43;58.43;99570.72;5071650;28;20320;-79
2023/05/19 05:20:58;;;;;;;;;;;;;;;16.49;58.50;99569.84;5071216;28;19908;-77
2023/05/19 05:23:23;;;;;;;;;;;;;;;16.56;58.39;99567.13;5070519;28;20385;-76
2023/05/19 05:25:49;;;;;;;;;;;;;;;16.61;58.37;99577.97;5071899;28;19912;-78
2023/05/19 05:28:14;;;;;;;;;;;;;;;16.64;58.54;99579.38;5071568;28;20297;-78
2023/05/19 05:30:40;;;;;;;;;;;;;;;16.65;58.50;99573.00;5071341;28;19908;-78
2023/05/19 05:33:05;;;;;;;;;;;;;;;16.68;58.46;99585.94;5071596;28;19966;-77
2023/05/19 05:35:31;;;;;;;;;;;;;;;16.70;58.41;99581.22;5071644;28;19997;-77
2023/05/19 05:37:56;;;;;;;;;;;;;;;16.71;58.37;99574.84;5071711;28;19908;-77
2023/05/19 05:40:21;;;;;;;;;;;;;;;16.69;58.37;99587.56;5071186;28;19912;-76
2023/05/19 05:42:47;;;;;;;;;;;;;;;16.72;58.43;99605.81;5071523;28;19912;-77
2023/05/19 05:45:12;;;;;;;;;;;;;;;16.75;58.54;99597.38;5071403;28;19908;-77
2023/05/19 05:47:38;;;;;;;;;;;;;;;16.80;58.25;99598.34;5071423;28;20007;-76
2023/05/19 05:50:04;;;;;;;;;;;;;;;16.84;58.37;99596.06;5071245;28;20368;-77
2023/05/19 05:52:31;;;;;;;;;;;;;;;16.87;58.46;99595.63;5071132;28;19999;-78
2023/05/19 05:54:56;;;;;;;;;;;;;;;16.93;58.42;99601.94;5062601;28;20022;-77
2023/05/19 05:57:22;;;;;;;;;;;;;;;16.91;58.75;99602.16;5060886;28;19913;-78
2023/05/19 05:59:47;;;;;;;;;;;;;;;16.94;58.60;99603.59;5065492;28;19920;-75
2023/05/19 06:02:12;;;;;;;;;;;;;;;17.03;58.55;99604.94;5064157;28;19916;-75
2023/05/19 06:04:39;;;;;;;;;;;;;;;17.08;58.37;99605.91;5071193;28;19962;-78
2023/05/19 06:07:04;;;;;;;;;;;;;;;17.12;58.40;99593.00;5069669;28;19908;-77
2023/05/19 06:09:30;;;;;;;;;;;;;;;17.20;58.38;99608.72;5070139;28;20000;-78
2023/05/19 06:11:56;;;;;;;;;;;;;;;17.32;58.26;99603.47;5070413;28;19912;-78
2023/05/19 06:14:22;;;;;;;;;;;;;;;17.39;57.88;99602.38;5065624;28;19940;-77
2023/05/19 06:16:47;;;;;;;;;;;;;;;17.50;57.55;99606.16;5063146;28;20408;-78
2023/05/19 06:19:12;;;;;;;;;;;;;;;17.53;57.43;99619.06;5073955;28;19908;-77
2023/05/19 06:21:38;;;;;;;;;;;;;;;17.59;57.67;99620.03;5070112;28;20008;-77
2023/05/19 06:24:03;;;;;;;;;;;;;;;17.59;57.67;99620.03;5067780;28;20011;-77
2023/05/19 06:26:28;;;;;;;;;;;;;;;17.68;57.60;99624.06;5071051;28;20408;-78
2023/05/19 06:28:54;;;;;;;;;;;;;;;17.74;57.54;99624.00;5070221;28;19917;-78
2023/05/19 06:31:19;;;;;;;;;;;;;;;17.80;57.27;99630.31;5072784;28;19912;-77
2023/05/19 06:33:45;;;;;;;;;;;;;;;17.82;57.05;99625.56;5067967;28;19913;-77
2023/05/19 06:36:12;;;;;;;;;;;;;;;17.89;57.29;99631.66;5073608;28;20423;-78
2023/05/19 06:38:38;;;;;;;;;;;;;;;17.93;57.24;99624.84;5060588;28;19981;-79
2023/05/19 06:41:03;;;;;;;;;;;;;;;17.96;56.88;99628.91;5069556;28;20821;-77
2023/05/19 06:43:29;;;;;;;;;;;;;;;17.97;56.95;99628.69;5064416;28;20051;-77
2023/05/19 06:45:54;;;;;;;;;;;;;;;18.02;56.82;99628.84;5065655;28;19955;-77
2023/05/19 06:48:19;;;;;;;;;;;;;;;18.02;56.25;99623.50;5066474;28;19936;-77
2023/05/19 06:50:44;;;;;;;;;;;;;;;18.09;56.19;99628.75;5066076;28;20389;-78
2023/05/19 06:53:10;;;;;;;;;;;;;;;18.09;56.19;99620.75;5057871;28;20454;-77
2023/05/19 06:55:35;;;;;;;;;;;;;;;18.14;56.40;99631.56;5058918;28;19912;-76
2023/05/19 06:58:00;;;;;;;;;;;;;;;18.21;56.49;99628.81;5069211;28;19919;-77
2023/05/19 07:00:25;;;;;;;;;;;;;;;18.28;56.42;99635.72;5070604;28;19912;-77
2023/05/19 07:02:51;;;;;;;;;;;;;;;18.33;56.18;99633.16;5073711;28;19913;-77
2023/05/19 07:05:16;;;;;;;;;;;;;;;18.43;56.24;99630.78;5069083;28;20381;-77
2023/05/19 07:07:42;;;;;;;;;;;;;;;18.50;56.19;99625.34;5071862;28;20019;-77
2023/05/19 07:10:07;;;;;;;;;;;;;;;18.54;56.26;99629.19;5067763;28;19916;-77
2023/05/19 07:12:32;;;;;;;;;;;;;;;18.52;55.74;99627.78;5068268;28;19921;-77
2023/05/19 07:14:58;;;;;;;;;;;;;;;18.58;55.83;99617.00;5070078;28;19912;-76
2023/05/19 07:17:23;;;;;;;;;;;;;;;18.67;55.54;99623.69;5072447;28;20361;-76
2023/05/19 07:19:48;;;;;;;;;;;;;;;18.71;54.64;99619.53;5070412;28;19912;-77
2023/05/19 07:22:13;;;;;;;;;;;;;;;18.77;53.14;99612.44;5067374;28;19924;-77
2023/05/19 07:24:39;;;;;;;;;;;;;;;18.84;54.42;99621.19;5069908;28;19973;-78
2023/05/19 07:27:04;;;;;;;;;;;;;;;18.91;53.79;99613.84;5072348;28;19908;-77
2023/05/19 07:29:30;;;;;;;;;;;;;;;18.97;53.45;99609.44;5065346;28;19996;-77
2023/05/19 07:31:56;;;;;;;;;;;;;;;19.00;53.64;99617.81;5057268;28;19943;-75
2023/05/19 07:34:22;;;;;;;;;;;;;;;19.11;53.72;99612.72;5053319;28;19908;-76
2023/05/19 07:36:50;;;;;;;;;;;;;;;19.21;53.15;99616.44;5053123;28;19962;-78
2023/05/19 07:39:16;;;;;;;;;;;;;;;19.28;53.68;99619.81;5052983;28;19908;-75
2023/05/19 07:41:41;;;;;;;;;;;;;;;19.39;53.51;99618.22;5071098;28;19927;-77
2023/05/19 07:44:06;;;;;;;;;;;;;;;19.53;53.93;99616.16;5065957;28;19913;-75
2023/05/19 07:46:36;;;;;;;;;;;;;;;19.62;53.56;99620.91;5057478;28;19919;-75
2023/05/19 07:49:01;;;;;;;;;;;;;;;19.70;52.77;99617.06;5053526;28;19931;-76
2023/05/19 07:51:27;;;;;;;;;;;;;;;19.71;52.42;99620.53;5053072;28;20390;-77
2023/05/19 07:53:52;;;;;;;;;;;;;;;19.78;52.80;99621.22;5061240;28;19919;-77
2023/05/19 07:56:18;;;;;;;;;;;;;;;19.85;52.39;99630.78;5069390;28;20452;-77
2023/05/19 07:58:43;;;;;;;;;;;;;;;19.95;52.07;99632.84;5069622;28;19912;-77
2023/05/19 08:01:08;;;;;;;;;;;;;;;19.96;51.58;99629.13;5065952;28;19912;-77
2023/05/19 08:03:33;;;;;;;;;;;;;;;20.00;52.44;99628.41;5055337;28;19948;-76
2023/05/19 08:05:59;;;;;;;;;;;;;;;20.08;52.53;99637.97;5061788;28;19935;-76
2023/05/19 08:08:24;;;;;;;;;;;;;;;20.18;52.45;99626.63;5072328;28;20392;-76
2023/05/19 08:10:50;;;;;;;;;;;;;;;20.32;52.49;99625.28;5066639;28;20051;-76
2023/05/19 08:13:18;;;;;;;;;;;;;;;20.46;51.89;99633.91;5060399;28;19951;-76
2023/05/19 08:15:44;;;;;;;;;;;;;;;20.52;52.12;99628.38;5071301;28;20312;-76
2023/05/19 08:18:09;;;;;;;;;;;;;;;20.67;52.19;99649.31;5060605;28;19917;-76
2023/05/19 08:20:35;;;;;;;;;;;;;;;20.72;50.85;99649.38;5072177;28;19915;-76
2023/05/19 08:23:00;;;;;;;;;;;;;;;20.78;50.30;99635.00;5057994;28;19974;-75
2023/05/19 08:25:26;;;;;;;;;;;;;;;20.83;49.66;99637.00;5068142;28;19912;-77
2023/05/19 08:27:51;;;;;;;;;;;;;;;20.93;50.64;99634.47;5065948;28;19924;-76
2023/05/19 08:30:16;;;;;;;;;;;;;;;21.03;51.11;99637.31;5059128;28;20435;-76
2023/05/19 08:32:42;;;;;;;;;;;;;;;21.09;51.04;99643.59;5062355;28;19947;-76
2023/05/19 08:35:07;;;;;;;;;;;;;;;21.12;50.71;99651.16;5060961;28;19915;-76
2023/05/19 08:37:35;;;;;;;;;;;;;;;21.18;50.05;99650.19;5062179;28;19923;-75
2023/05/19 08:40:03;;;;;;;;;;;;;;;21.26;50.21;99649.81;5057781;28;19916;-75
2023/05/19 08:42:28;;;;;;;;;;;;;;;21.30;50.24;99647.44;5072573;28;19923;-75
2023/05/19 08:44:53;;;;;;;;;;;;;;;21.42;49.58;99646.28;5068989;28;19908;-75
2023/05/19 08:47:19;;;;;;;;;;;;;;;21.51;50.21;99652.88;5070679;28;19974;-75
2023/05/19 08:49:45;;;;;;;;;;;;;;;21.64;49.96;99658.97;5072238;28;19908;-76
2023/05/19 08:52:13;;;;;;;;;;;;;;;21.72;48.52;99664.75;5072387;28;20003;-77
2023/05/19 08:54:44;;;;;;;;;;;;;;;21.78;47.22;99650.31;5055002;28;19920;-77
2023/05/19 08:57:10;;;;;;;;;;;;;;;21.86;48.67;99657.13;5071413;28;19912;-77
2023/05/19 08:59:35;;;;;;;;;;;;;;;21.92;49.10;99666.06;5067797;28;19916;-76
2023/05/19 09:02:02;;;;;;;;;;;;;;;21.98;49.01;99655.13;5069162;28;19920;-76
2023/05/19 09:04:28;;;;;;;;;;;;;;;22.10;48.73;99653.16;5070208;28;19912;-77
2023/05/19 09:06:53;;;;;;;;;;;;;;;22.29;47.70;99658.22;5071218;28;19920;-77
2023/05/19 09:09:18;;;;;;;;;;;;;;;22.24;48.68;99668.94;5066645;28;20354;-77
2023/05/19 09:11:47;;;;;;;;;;;;;;;22.07;49.14;99658.22;5066869;28;19967;-77
2023/05/19 09:14:12;;;;;;;;;;;;;;;22.04;48.27;99648.78;5067973;28;19912;-76
2023/05/19 09:16:38;;;;;;;;;;;;;;;22.16;49.17;99657.53;5067789;28;19951;-75
2023/05/19 09:19:03;;;;;;;;;;;;;;;22.09;48.71;99661.47;5064213;28;19912;-77
2023/05/19 09:21:29;;;;;;;;;;;;;;;22.23;47.74;99651.16;5067794;28;19958;-76
2023/05/19 09:23:55;;;;;;;;;;;;;;;22.62;47.31;99659.94;5061786;28;19916;-76
2023/05/19 09:26:22;;;;;;;;;;;;;;;22.83;46.45;99657.22;5071523;28;20296;-77
2023/05/19 09:28:47;;;;;;;;;;;;;;;22.86;46.54;99658.59;5069143;28;20310;-76
2023/05/19 09:31:12;;;;;;;;;;;;;;;23.09;46.88;99660.97;5064583;28;19932;-76
2023/05/19 09:33:38;;;;;;;;;;;;;;;23.37;45.63;99651.75;5068898;28;19927;-76
2023/05/19 09:36:05;;;;;;;;;;;;;;;23.42;44.63;99665.28;5060575;28;19908;-76
2023/05/19 09:38:30;;;;;;;;;;;;;;;23.34;46.61;99668.44;5064043;28;20413;-77
2023/05/19 09:40:56;;;;;;;;;;;;;;;23.13;45.63;99655.91;5070886;28;20001;-76
2023/05/19 09:43:22;;;;;;;;;;;;;;;22.85;45.66;99651.59;5069048;28;19916;-76
2023/05/19 09:45:48;;;;;;;;;;;;;;;22.58;47.60;99648.06;5065208;28;20080;-75
2023/05/19 09:48:14;;;;;;;;;;;;;;;22.42;48.11;99639.84;5066551;28;20401;-77
2023/05/19 09:50:41;;;;;;;;;;;;;;;22.32;48.32;99647.81;5062939;28;19912;-76
2023/05/19 09:53:06;;;;;;;;;;;;;;;22.28;47.98;99640.47;5066886;28;19920;-76
2023/05/19 09:55:32;;;;;;;;;;;;;;;22.59;47.47;99641.63;5043485;28;19916;-76
2023/05/19 09:57:58;;;;;;;;;;;;;;;22.97;47.67;99638.78;5051034;28;20003;-76
2023/05/19 10:00:25;;;;;;;;;;;;;;;22.96;46.79;99633.63;5050347;28;19913;-76
2023/05/19 10:02:51;;;;;;;;;;;;;;;22.79;46.96;99634.53;5049027;28;19917;-76
2023/05/19 10:05:18;;;;;;;;;;;;;;;22.61;48.15;99642.19;5050553;28;19920;-75
2023/05/19 10:07:50;;;;;;;;;;;;;;;22.42;48.33;99641.72;5053914;28;19931;-76
2023/05/19 10:10:15;;;;;;;;;;;;;;;22.25;49.01;99639.09;5049356;28;19948;-76
2023/05/19 10:12:41;;;;;;;;;;;;;;;22.15;48.05;99637.09;5052049;28;19944;-77
2023/05/19 10:15:07;;;;;;;;;;;;;;;22.08;48.52;99632.97;5054624;28;19982;-76
2023/05/19 10:17:33;;;;;;;;;;;;;;;22.20;48.54;99628.28;5054659;28;19909;-76
2023/05/19 10:19:59;;;;;;;;;;;;;;;22.64;46.97;99620.94;5053342;28;20025;-75
2023/05/19 10:22:24;;;;;;;;;;;;;;;22.75;47.51;99622.66;5052469;28;19944;-77
2023/05/19 10:24:49;;;;;;;;;;;;;;;22.72;46.49;99622.38;5054493;28;20411;-76
2023/05/19 10:27:15;;;;;;;;;;;;;;;22.67;47.40;99623.13;5046491;28;19980;-76
2023/05/19 10:29:43;;;;;;;;;;;;;;;22.53;46.79;99619.22;5053317;28;19996;-76
2023/05/19 10:32:14;;;;;;;;;;;;;;;22.41;47.51;99610.50;5053670;28;20318;-77
2023/05/19 10:34:58;;;;;;;;;;;;;;;22.34;47.50;99612.56;5054792;28;19963;-77
2023/05/19 10:37:33;;;;;;;;;;;;;;;22.56;46.37;99610.66;5048153;28;20409;-77
2023/05/19 10:39:59;;;;;;;;;;;;;;;23.11;47.14;99607.66;5032421;28;20371;-76
2023/05/19 10:42:44;;;;;;;;;;;;;;;23.18;46.57;99604.75;5033440;28;19996;-76
2023/05/19 10:45:16;;;;;;;;;;;;;;;23.00;46.54;99613.22;5041268;28;20080;-76
2023/05/19 10:47:41;;;;;;;;;;;;;;;22.80;43.91;99614.66;5042757;28;20381;-77
2023/05/19 10:50:07;;;;;;;;;;;;;;;22.68;44.96;99615.88;5046057;28;19963;-76
2023/05/19 10:52:35;;;;;;;;;;;;;;;22.49;42.71;99612.72;5049788;28;19966;-76
2023/05/19 10:55:01;;;;;;;;;;;;;;;22.46;46.81;99608.66;5050515;28;20355;-76
2023/05/19 10:57:31;;;;;;;;;;;;;;;22.47;45.75;99604.09;5047606;28;19912;-76
2023/05/19 10:59:59;;;;;;;;;;;;;;;22.67;44.72;99606.16;5048443;28;19962;-76
2023/05/19 11:02:43;;;;;;;;;;;;;;;23.42;44.32;99599.78;5049935;28;20003;-77
2023/05/19 11:05:17;;;;;;;;;;;;;;;23.77;44.41;99596.50;5053855;28;20388;-76
2023/05/19 11:07:46;;;;;;;;;;;;;;;24.08;43.87;99603.66;5054484;28;19959;-76
2023/05/19 11:10:11;;;;;;;;;;;;;;;24.46;41.14;99604.31;5054074;28;19940;-76
2023/05/19 11:12:41;;;;;;;;;;;;;;;24.65;39.85;99600.03;5053901;28;20009;-76
2023/05/19 11:15:08;;;;;;;;;;;;;;;25.11;40.08;99594.66;5053952;28;19909;-74
2023/05/19 11:17:34;;;;;;;;;;;;;;;25.50;36.92;99594.06;5053750;28;19920;-77
2023/05/19 11:19:59;;;;;;;;;;;;;;;25.79;40.33;99592.38;5053377;28;20004;-76
2023/05/19 11:22:25;;;;;;;;;;;;;;;25.92;40.07;99585.56;5052981;28;19913;-78
2023/05/19 11:24:53;;;;;;;;;;;;;;;26.14;39.25;99588.72;5052279;28;20400;-77
2023/05/19 11:27:19;;;;;;;;;;;;;;;26.43;35.52;99583.41;5053307;28;20422;-77
2023/05/19 11:29:44;;;;;;;;;;;;;;;26.39;36.37;99576.94;5053276;28;19943;-78
2023/05/19 11:32:10;;;;;;;;;;;;;;;26.57;36.97;99583.59;5053295;28;19957;-75
2023/05/19 11:34:36;;;;;;;;;;;;;;;26.77;37.52;99577.22;5051859;28;19908;-75
2023/05/19 11:37:01;;;;;;;;;;;;;;;27.10;38.43;99572.91;5053150;28;20350;-75
2023/05/19 11:39:27;;;;;;;;;;;;;;;27.19;37.33;99561.16;5053038;28;19923;-76
2023/05/19 11:41:54;;;;;;;;;;;;;;;27.28;34.84;99565.94;5052949;28;20515;-76
2023/05/19 11:44:19;;;;;;;;;;;;;;;27.60;33.67;99565.34;5052945;28;20305;-77
2023/05/19 11:46:45;;;;;;;;;;;;;;;27.83;33.12;99559.91;5052997;28;19909;-76
2023/05/19 11:49:10;;;;;;;;;;;;;;;27.57;36.23;99568.63;5053111;28;20017;-77
2023/05/19 11:51:37;;;;;;;;;;;;;;;27.22;33.94;99563.28;5052926;28;19908;-77
2023/05/19 11:54:02;;;;;;;;;;;;;;;27.13;37.11;99554.16;5052771;28;19909;-77
2023/05/19 11:56:32;;;;;;;;;;;;;;;26.77;32.74;99468.88;5052749;28;19915;-76
2023/05/19 11:58:57;;;;;;;;;;;;;;;27.49;35.59;99557.28;5051416;28;20367;-76
2023/05/19 12:01:25;;;;;;;;;;;;;;;27.66;32.41;99556.06;5053050;28;19908;-77
2023/05/19 12:03:51;;;;;;;;;;;;;;;27.82;32.40;99558.28;5053115;28;20373;-77
2023/05/19 12:06:16;;;;;;;;;;;;;;;28.04;33.17;99556.91;5053226;28;19915;-76
2023/05/19 12:08:41;;;;;;;;;;;;;;;28.06;35.24;99554.72;5053261;28;19952;-76
2023/05/19 12:11:07;;;;;;;;;;;;;;;28.28;30.93;99551.47;5052954;28;19908;-77
2023/05/19 12:13:32;;;;;;;;;;;;;;;28.45;29.55;99543.59;5051413;28;19916;-76
2023/05/19 12:15:58;;;;;;;;;;;;;;;28.61;33.60;99546.88;5052709;28;19951;-76
2023/05/19 12:18:26;;;;;;;;;;;;;;;28.67;31.54;99548.41;5052257;28;20053;-76
2023/05/19 12:20:52;;;;;;;;;;;;;;;28.65;29.70;99553.34;5052269;28;19916;-76
2023/05/19 12:23:17;;;;;;;;;;;;;;;28.38;32.18;99563.00;5052254;28;19913;-75
2023/05/19 12:25:43;;;;;;;;;;;;;;;28.12;30.18;99562.50;5052223;28;19916;-77
2023/05/19 12:28:08;;;;;;;;;;;;;;;28.18;31.34;99565.94;5051920;28;19921;-77
2023/05/19 12:30:33;;;;;;;;;;;;;;;28.32;32.15;99557.94;5052168;28;19920;-76
2023/05/19 12:32:58;;;;;;;;;;;;;;;28.24;31.26;99548.56;5052242;28;19908;-77
2023/05/19 12:35:30;;;;;;;;;;;;;;;27.80;32.14;99551.56;5050929;28;20465;-76
2023/05/19 12:38:01;;;;;;;;;;;;;;;27.76;31.99;99550.50;5052246;28;19915;-76
2023/05/19 12:40:28;;;;;;;;;;;;;;;27.67;32.18;99549.56;5051859;28;20308;-77
2023/05/19 12:42:57;;;;;;;;;;;;;;;27.87;33.91;99551.19;5051632;28;19956;-76